Accueil
METAR-TAF:

METAR-TAF

Aéroports :

Base aérienne 709 Cognac-Châteaubernard

Cognac, France

latitude: 45-40N, longitude: 000-19W, altitude: 30 m

Observation

Le bulletin a été fait il y a 29 minutes, à 12:00 UTC
Vent 2 kt de direction variable
Température 30°C
Humidité 40%
Pression 1022 hPa
Visibilité 10 km ou plus
pas de nuages en-dessous de 1500 mètres et pas de cumulonimbus.

METAR: LFBG 121200Z AUTO VRB02KT CAVOK 30/15 Q1022

Heure: 14:29 (12:29 UTC)

Prévision

Le bulletin a été fait il y a 22 heures et 29 minutes, à 14:00 UTC
Prévision valable du 11 à 15 UTC au 12 à 15 UTC
Vent 7 kt de nord-est
Visibilité 10 km ou plus
pas de nuages en-dessous de 1500 mètres et pas de cumulonimbus.
Probabilité 40% :
Temporairement
du 11 à 15 UTC au 11 à 18 UTC
Visibilité: 4000 m
Nuages épars à une hauteur de 4000 ft, Cumulonimbus.
averses de pluie

TAF: LFBG 111400Z 1115/1215 04007KT CAVOK PROB40 TEMPO 1115/1118 4000 SHRA SCT040CB

Observations et prévisions météorologiques de plus de 4000 aéroports (messages METAR et TAF).

Les stations disponibles sont représentées par des disques jaunes et rouges sur la carte.

Passer la souris dessus pour voir le nom de la station.

Cliquer dessus pour voir les observations et prévisions météorologiques.

Pour changer de carte: cliquez sur les boutons verts avec une croix noire pour zoomer, sur le bouton vert avec un tiret pour effectuer un zoom arrière, ou sur les flèches vertes pour les cartes adjacentes.


METAR-TAF: